Pelham, New Hampshire
Current Conditions -  °F | °C
As of 2:54 AM on Saturday 25 Oct 2014 (Local Time) from KLWM Reporting Station
Overcast Overcast  
Wind Chill: 47°   Ceiling: 6500
Heat Index: 47°   Visibility: 10mi
Dew Point: 43°   Wind: 3mph
Humidity: 86%   Direction: 250°WSW
Pressure: 29.77"   Gusts: NA
Location:  42.73°N, 71.32°W
Report Text: KLWM 250654Z AUTO 25003KT 10SM OVC065 08/06 A2977 RMK AO2 SLP080 T00830061
Loading
Personal Weather Stations






























Interactive Weather Map
Tropical Storm Tracking
New forecast layout! Learn more

10-Day Weather Forecast

Advertisements
Track Severe Weather on mobile